createdAt,value
2022-11-29T00:02:17.413Z,27.50
2022-11-29T00:06:21.804Z,29.80
2022-11-29T00:10:23.297Z,28.77
2022-11-29T00:14:26.448Z,30.85
2022-11-29T00:18:28.036Z,28.70
2022-11-29T00:22:30.057Z,30.92
2022-11-29T00:26:31.591Z,29.88
2022-11-29T00:30:33.907Z,31.38
2022-11-29T00:34:35.597Z,29.10
2022-11-29T00:38:37.466Z,34.15
2022-11-29T00:42:38.972Z,30.05
2022-11-29T00:46:42.044Z,33.90
2022-11-29T00:50:43.604Z,33.15
2022-11-29T00:54:45.314Z,27.20
2022-11-29T00:58:48.461Z,31.92
2022-11-29T01:02:50.179Z,31.65
2022-11-29T01:06:53.032Z,32.83
2022-11-29T01:11:02.792Z,28.70
2022-11-29T01:15:07.138Z,35.63
2022-11-29T01:19:08.740Z,34.50
2022-11-29T01:23:10.246Z,34.05
2022-11-29T01:27:11.818Z,31.58
2022-11-29T01:31:21.512Z,32.15
2022-11-29T01:35:23.132Z,32.50
2022-11-29T01:39:24.744Z,32.25
2022-11-29T01:43:26.756Z,36.92
2022-11-29T01:47:29.234Z,34.22
2022-11-29T01:51:32.655Z,34.50
2022-11-29T01:55:38.608Z,33.58
2022-11-29T01:59:48.415Z,35.45
2022-11-29T02:03:50.118Z,30.95
2022-11-29T02:07:55.101Z,31.17
2022-11-29T02:12:14.907Z,33.08
2022-11-29T02:16:23.536Z,37.38
2022-11-29T02:20:40.341Z,36.60
2022-11-29T02:24:55.596Z,31.67
2022-11-29T02:29:34.041Z,32.03
2022-11-29T02:34:09.388Z,36.70
2022-11-29T02:39:01.147Z,31.95
2022-11-29T02:43:24.632Z,37.08
2022-11-29T02:47:37.410Z,35.25
2022-11-29T02:51:48.032Z,35.10
2022-11-29T02:56:12.832Z,35.70
2022-11-29T03:00:19.157Z,39.67
2022-11-29T03:08:29.728Z,37.33
2022-11-29T03:12:40.268Z,36.03
2022-11-29T03:17:05.613Z,34.05
2022-11-29T03:21:20.369Z,33.08
2022-11-29T03:25:29.191Z,40.70
2022-11-29T03:29:40.494Z,41.90
2022-11-29T03:33:52.530Z,41.47
2022-11-29T03:38:15.132Z,34.13
2022-11-29T03:42:59.827Z,34.80
2022-11-29T03:47:08.234Z,40.20
2022-11-29T03:51:26.374Z,36.00
2022-11-29T03:55:53.023Z,41.33
2022-11-29T04:00:10.165Z,32.80
2022-11-29T04:04:32.516Z,37.63
2022-11-29T04:09:12.605Z,34.65
2022-11-29T04:13:34.136Z,32.15
2022-11-29T04:18:15.392Z,34.33
2022-11-29T04:22:43.278Z,39.97
2022-11-29T04:27:14.339Z,36.40
2022-11-29T04:31:25.076Z,31.65
2022-11-29T04:35:56.392Z,34.83
2022-11-29T04:40:12.646Z,34.25
2022-11-29T04:44:51.864Z,34.88
2022-11-29T04:49:22.182Z,38.72
2022-11-29T04:53:42.102Z,39.25
2022-11-29T04:57:56.019Z,34.85
2022-11-29T05:02:07.204Z,35.47
2022-11-29T05:06:32.639Z,34.65
2022-11-29T05:10:44.839Z,37.72
2022-11-29T05:15:04.850Z,31.77
2022-11-29T05:19:34.373Z,33.65
2022-11-29T05:24:03.366Z,32.63
2022-11-29T05:28:26.873Z,35.50
2022-11-29T05:32:45.466Z,32.70
2022-11-29T05:37:06.758Z,36.35
2022-11-29T05:41:23.597Z,31.17
2022-11-29T05:45:46.953Z,37.60
2022-11-29T05:50:07.493Z,32.10
2022-11-29T05:54:25.393Z,32.90
2022-11-29T05:58:45.300Z,32.88
2022-11-29T06:02:58.370Z,29.45
2022-11-29T06:07:19.873Z,31.83
2022-11-29T06:11:30.901Z,33.00
2022-11-29T06:16:02.713Z,35.97
2022-11-29T06:20:28.359Z,31.23
2022-11-29T06:24:52.827Z,32.72
2022-11-29T06:29:13.096Z,33.95
2022-11-29T06:33:25.353Z,34.58
2022-11-29T06:37:33.819Z,32.90
2022-11-29T06:41:35.707Z,31.92
2022-11-29T06:45:37.587Z,36.50
2022-11-29T06:49:46.820Z,31.20
2022-11-29T06:54:07.290Z,31.65
2022-11-29T06:58:37.783Z,30.88
2022-11-29T07:03:04.340Z,33.28
2022-11-29T07:07:19.496Z,32.13
2022-11-29T07:11:43.253Z,33.10
2022-11-29T07:16:15.872Z,32.95
2022-11-29T07:20:23.779Z,29.95
2022-11-29T07:24:44.520Z,28.25
2022-11-29T07:29:16.726Z,33.03
2022-11-29T07:33:38.535Z,31.48
2022-11-29T07:37:53.393Z,29.50
2022-11-29T07:42:22.728Z,31.23
2022-11-29T07:46:25.678Z,31.73
2022-11-29T07:50:29.037Z,31.83
2022-11-29T07:54:31.087Z,31.88
2022-11-29T07:58:33.094Z,30.45
2022-11-29T08:02:34.902Z,27.88
2022-11-29T08:06:37.284Z,31.08
2022-11-29T08:10:39.180Z,29.80
2022-11-29T08:14:40.666Z,29.23
2022-11-29T08:18:42.215Z,27.30
2022-11-29T08:22:43.944Z,29.77
2022-11-29T08:26:45.568Z,27.98
2022-11-29T08:30:47.020Z,28.02
2022-11-29T08:34:48.608Z,27.88
2022-11-29T08:38:52.849Z,27.73
2022-11-29T08:42:58.881Z,26.48
2022-11-29T08:47:18.789Z,25.67
2022-11-29T08:51:20.554Z,25.67
2022-11-29T08:55:25.195Z,23.05
2022-11-29T08:59:27.067Z,22.52
2022-11-29T09:03:47.284Z,24.65
2022-11-29T09:07:49.101Z,24.25
2022-11-29T09:11:50.726Z,23.17
2022-11-29T09:15:52.298Z,22.20
2022-11-29T09:19:54.048Z,22.75
2022-11-29T09:23:59.213Z,25.55
2022-11-29T09:28:02.867Z,24.05
2022-11-29T09:32:05.006Z,22.55
2022-11-29T09:36:08.696Z,21.45
2022-11-29T09:40:25.172Z,19.83
2022-11-29T09:44:46.064Z,23.42
2022-11-29T09:49:07.566Z,20.50
2022-11-29T09:53:29.728Z,19.70
2022-11-29T09:57:31.475Z,22.52
2022-11-29T10:01:39.973Z,21.17
2022-11-29T10:05:47.369Z,23.08
2022-11-29T10:09:56.411Z,25.00
2022-11-29T10:14:08.074Z,21.23
2022-11-29T10:18:25.474Z,22.55
2022-11-29T10:22:40.723Z,26.13
2022-11-29T10:26:43.588Z,24.80
2022-11-29T10:30:45.710Z,21.95
2022-11-29T10:34:49.710Z,21.27
2022-11-29T10:38:53.756Z,23.15
2022-11-29T10:42:56.837Z,25.13
2022-11-29T10:47:05.438Z,25.52
2022-11-29T10:51:17.352Z,21.88
2022-11-29T10:55:22.284Z,23.27
2022-11-29T10:59:27.461Z,27.20
2022-11-29T11:03:52.847Z,24.27
2022-11-29T11:07:58.805Z,27.52
2022-11-29T11:12:04.041Z,22.25
2022-11-29T11:16:19.506Z,26.92
2022-11-29T11:20:23.915Z,28.27
2022-11-29T11:24:29.845Z,25.13
2022-11-29T11:28:43.581Z,29.63
2022-11-29T11:33:22.930Z,30.60
2022-11-29T11:37:30.156Z,30.05
2022-11-29T11:41:54.231Z,26.92
2022-11-29T11:46:00.142Z,29.00
2022-11-29T11:50:04.686Z,28.35
2022-11-29T11:54:14.753Z,29.67
2022-11-29T11:58:21.784Z,27.95
2022-11-29T12:02:37.524Z,27.05
2022-11-29T12:07:04.236Z,29.67
2022-11-29T12:11:10.260Z,25.50
2022-11-29T12:15:20.164Z,24.50
2022-11-29T12:19:32.260Z,30.77
2022-11-29T12:23:57.609Z,26.00
2022-11-29T12:27:59.296Z,29.30
2022-11-29T12:32:40.103Z,31.55
2022-11-29T12:36:49.704Z,24.63
2022-11-29T12:41:06.526Z,27.08
2022-11-29T12:45:23.434Z,29.35
2022-11-29T12:49:34.669Z,27.88
2022-11-29T12:54:09.349Z,27.52
2022-11-29T12:58:18.576Z,26.75
2022-11-29T13:02:48.544Z,27.70
2022-11-29T13:06:56.471Z,28.48
2022-11-29T13:11:03.893Z,30.60
2022-11-29T13:15:14.781Z,31.08
2022-11-29T13:19:29.154Z,30.10
2022-11-29T13:28:32.198Z,27.15
2022-11-29T13:32:51.725Z,33.25
2022-11-29T13:37:23.358Z,34.75
2022-11-29T13:41:36.113Z,32.22
2022-11-29T13:45:47.362Z,30.80
2022-11-29T13:50:02.478Z,33.22
2022-11-29T13:54:28.615Z,34.95
2022-11-29T13:58:37.452Z,32.17
2022-11-29T14:02:39.174Z,35.05
2022-11-29T14:06:41.339Z,34.83
2022-11-29T14:10:49.081Z,34.22
2022-11-29T14:14:50.716Z,33.58
2022-11-29T14:19:08.320Z,32.13
2022-11-29T14:23:16.665Z,33.95
2022-11-29T14:27:21.527Z,32.88
2022-11-29T14:31:52.090Z,32.65
2022-11-29T14:36:12.584Z,28.25
2022-11-29T14:40:42.244Z,30.33
2022-11-29T14:44:52.805Z,36.42
2022-11-29T14:48:54.397Z,32.78
2022-11-29T14:52:56.087Z,32.80
2022-11-29T14:56:58.074Z,34.15
2022-11-29T15:01:09.659Z,34.72
2022-11-29T15:05:54.453Z,36.13
2022-11-29T15:25:54.818Z,37.13
2022-11-29T15:29:56.512Z,37.92
2022-11-29T15:33:59.072Z,37.85
2022-11-29T15:38:01.395Z,40.58
2022-11-29T15:42:08.407Z,39.53
2022-11-29T15:46:19.706Z,38.50
2022-11-29T15:50:33.041Z,41.28
2022-11-29T15:54:39.921Z,44.03
2022-11-29T15:59:14.863Z,41.38
2022-11-29T16:03:25.199Z,37.78
2022-11-29T16:07:32.445Z,44.92
2022-11-29T16:11:50.816Z,39.30
2022-11-29T16:16:15.765Z,39.05
2022-11-29T16:20:31.702Z,40.80
2022-11-29T16:24:34.872Z,43.75
2022-11-29T16:28:54.114Z,40.33
2022-11-29T16:32:59.883Z,41.53
2022-11-29T16:37:34.689Z,40.85
2022-11-29T16:41:38.598Z,43.17
2022-11-29T16:46:20.402Z,38.38
2022-11-29T16:50:25.441Z,41.17
2022-11-29T16:55:17.075Z,40.17
2022-11-29T16:59:27.389Z,35.78
2022-11-29T17:03:29.592Z,37.90
2022-11-29T17:07:41.658Z,34.25
2022-11-29T17:11:43.605Z,34.33
2022-11-29T17:15:45.385Z,39.13
2022-11-29T17:19:46.937Z,35.70
2022-11-29T17:23:48.692Z,35.38
2022-11-29T17:27:50.156Z,34.95
2022-11-29T17:32:42.377Z,35.70
2022-11-29T17:36:45.768Z,34.88
2022-11-29T17:41:23.219Z,37.88
2022-11-29T17:45:24.989Z,35.50
2022-11-29T17:49:26.557Z,37.20
2022-11-29T17:53:28.198Z,35.38
2022-11-29T17:58:04.331Z,37.38
2022-11-29T18:02:55.894Z,38.45
2022-11-29T18:06:58.899Z,38.80
2022-11-29T18:11:08.181Z,41.50
2022-11-29T18:15:09.856Z,41.30
2022-11-29T18:19:16.859Z,37.15
2022-11-29T18:23:18.854Z,38.70
2022-11-29T18:27:21.508Z,35.83
2022-11-29T18:31:28.168Z,38.38
2022-11-29T18:35:29.857Z,35.95
2022-11-29T18:40:23.018Z,37.58
2022-11-29T18:44:29.298Z,39.58
2022-11-29T18:53:22.871Z,43.97
2022-11-29T19:08:48.308Z,41.72
2022-11-29T19:12:49.933Z,43.45
2022-11-29T19:16:54.506Z,40.28
2022-11-29T19:21:10.750Z,43.30
2022-11-29T19:29:28.916Z,46.63
2022-11-29T19:33:57.015Z,41.75
2022-11-29T19:38:15.644Z,42.50
2022-11-29T19:48:08.781Z,42.13
2022-11-29T19:52:10.414Z,42.53
2022-11-29T19:56:14.460Z,43.40
2022-11-29T20:01:51.512Z,38.38
2022-11-29T20:05:55.550Z,40.88
2022-11-29T20:10:36.886Z,45.20
2022-11-29T20:15:01.084Z,41.53
2022-11-29T20:19:13.523Z,44.47
2022-11-29T20:23:41.173Z,42.92
2022-11-29T20:28:33.746Z,43.20
2022-11-29T20:32:37.218Z,41.72
2022-11-29T20:37:08.565Z,42.35
2022-11-29T20:41:43.943Z,42.72
2022-11-29T20:45:46.678Z,41.50
2022-11-29T20:49:49.601Z,39.25
2022-11-29T20:53:55.667Z,41.63
2022-11-29T20:58:26.480Z,37.95
2022-11-29T21:03:02.411Z,34.80
2022-11-29T21:07:03.946Z,36.55
2022-11-29T21:11:10.144Z,39.63
2022-11-29T21:15:16.941Z,41.08
2022-11-29T21:19:23.812Z,43.40
2022-11-29T21:23:35.037Z,37.33
2022-11-29T21:27:37.359Z,40.85
2022-11-29T21:31:42.757Z,32.47
2022-11-29T21:36:15.504Z,34.30
2022-11-29T21:40:17.427Z,36.38
2022-11-29T21:44:18.993Z,37.92
2022-11-29T21:49:10.904Z,36.42
2022-11-29T21:53:12.463Z,34.08
2022-11-29T21:57:48.239Z,34.65
2022-11-29T22:01:53.700Z,37.40
2022-11-29T22:06:30.632Z,34.38
2022-11-29T22:10:33.042Z,36.85
2022-11-29T22:14:36.130Z,32.30
2022-11-29T22:18:38.155Z,31.55
2022-11-29T22:22:39.655Z,37.65
2022-11-29T22:26:43.605Z,32.30
2022-11-29T22:30:45.407Z,35.17
2022-11-29T22:34:47.224Z,33.30
2022-11-29T22:38:48.862Z,31.88
2022-11-29T22:42:52.054Z,31.15
2022-11-29T22:46:53.778Z,35.13
2022-11-29T22:51:05.577Z,30.95
2022-11-29T22:55:07.482Z,29.95
2022-11-29T22:59:42.884Z,35.90
2022-11-29T23:04:34.810Z,35.13
2022-11-29T23:08:37.875Z,33.80
2022-11-29T23:12:39.717Z,32.60
2022-11-29T23:16:43.813Z,33.42
2022-11-29T23:20:45.315Z,33.80
2022-11-29T23:24:47.037Z,32.05
2022-11-29T23:28:56.334Z,34.45
2022-11-29T23:32:58.043Z,34.35
2022-11-29T23:36:59.630Z,29.63
2022-11-29T23:41:01.453Z,33.30
2022-11-29T23:45:03.438Z,34.58
2022-11-29T23:50:18.964Z,34.45
2022-11-29T23:55:12.111Z,35.67
